sensor_id;sensor_type;location;lat;lon;timestamp;temperature;humidity
16140;DHT22;8175;49.326;12.690;2024-01-15T00:01:56;-4.80;99.90
16140;DHT22;8175;49.326;12.690;2024-01-15T00:04:22;-4.70;99.90
16140;DHT22;8175;49.326;12.690;2024-01-15T00:06:49;-4.70;99.90
16140;DHT22;8175;49.326;12.690;2024-01-15T00:09:15;-4.70;99.90
16140;DHT22;8175;49.326;12.690;2024-01-15T00:11:41;-4.70;99.90
16140;DHT22;8175;49.326;12.690;2024-01-15T00:14:07;-4.60;99.90
16140;DHT22;8175;49.326;12.690;2024-01-15T00:16:33;-4.50;99.90
16140;DHT22;8175;49.326;12.690;2024-01-15T00:18:59;-4.50;99.90
16140;DHT22;8175;49.326;12.690;2024-01-15T00:21:24;-4.40;99.90
16140;DHT22;8175;49.326;12.690;2024-01-15T00:23:50;-4.40;99.90
16140;DHT22;8175;49.326;12.690;2024-01-15T00:26:16;-4.40;99.90
16140;DHT22;8175;49.326;12.690;2024-01-15T00:28:41;-4.20;99.90
16140;DHT22;8175;49.326;12.690;2024-01-15T00:31:07;-4.20;99.90
16140;DHT22;8175;49.326;12.690;2024-01-15T00:33:33;-4.10;99.90
16140;DHT22;8175;49.326;12.690;2024-01-15T00:35:59;-3.90;99.90
16140;DHT22;8175;49.326;12.690;2024-01-15T00:38:24;-3.90;99.90
16140;DHT22;8175;49.326;12.690;2024-01-15T00:40:50;-3.80;99.90
16140;DHT22;8175;49.326;12.690;2024-01-15T00:43:16;-3.80;99.90
16140;DHT22;8175;49.326;12.690;2024-01-15T00:45:43;-3.70;99.90
16140;DHT22;8175;49.326;12.690;2024-01-15T00:48:09;-3.70;99.90
16140;DHT22;8175;49.326;12.690;2024-01-15T00:50:35;-3.70;99.90
16140;DHT22;8175;49.326;12.690;2024-01-15T00:53:00;-3.60;99.90
16140;DHT22;8175;49.326;12.690;2024-01-15T00:55:28;-3.60;99.90
16140;DHT22;8175;49.326;12.690;2024-01-15T00:57:54;-3.70;99.90
16140;DHT22;8175;49.326;12.690;2024-01-15T01:00:19;-3.60;99.90
16140;DHT22;8175;49.326;12.690;2024-01-15T01:02:45;-3.60;99.90
16140;DHT22;8175;49.326;12.690;2024-01-15T01:05:11;-3.60;99.90
16140;DHT22;8175;49.326;12.690;2024-01-15T01:07:36;-3.60;99.90
16140;DHT22;8175;49.326;12.690;2024-01-15T01:10:02;-3.60;99.90
16140;DHT22;8175;49.326;12.690;2024-01-15T01:12:28;-3.60;99.90
16140;DHT22;8175;49.326;12.690;2024-01-15T01:14:55;-3.70;99.90
16140;DHT22;8175;49.326;12.690;2024-01-15T01:17:21;-3.70;99.90
16140;DHT22;8175;49.326;12.690;2024-01-15T01:19:46;-3.60;99.90
16140;DHT22;8175;49.326;12.690;2024-01-15T01:22:12;-3.70;99.90
16140;DHT22;8175;49.326;12.690;2024-01-15T01:24:38;-3.80;99.90
16140;DHT22;8175;49.326;12.690;2024-01-15T01:27:03;-3.90;99.90
16140;DHT22;8175;49.326;12.690;2024-01-15T01:29:29;-4.00;99.90
16140;DHT22;8175;49.326;12.690;2024-01-15T01:31:55;-4.10;99.90
16140;DHT22;8175;49.326;12.690;2024-01-15T01:34:22;-4.20;99.90
16140;DHT22;8175;49.326;12.690;2024-01-15T01:36:47;-4.20;99.90
16140;DHT22;8175;49.326;12.690;2024-01-15T01:39:13;-4.30;99.90
16140;DHT22;8175;49.326;12.690;2024-01-15T01:41:39;-4.30;99.90
16140;DHT22;8175;49.326;12.690;2024-01-15T01:44:05;-4.30;99.90
16140;DHT22;8175;49.326;12.690;2024-01-15T01:46:31;-4.30;99.90
16140;DHT22;8175;49.326;12.690;2024-01-15T01:48:57;-4.30;99.90
16140;DHT22;8175;49.326;12.690;2024-01-15T01:51:24;-4.40;99.90
16140;DHT22;8175;49.326;12.690;2024-01-15T01:53:50;-4.40;99.90
16140;DHT22;8175;49.326;12.690;2024-01-15T01:56:17;-4.40;99.90
16140;DHT22;8175;49.326;12.690;2024-01-15T01:58:44;-4.50;99.90
16140;DHT22;8175;49.326;12.690;2024-01-15T02:01:11;-4.50;99.90
16140;DHT22;8175;49.326;12.690;2024-01-15T02:03:39;-4.50;99.90
16140;DHT22;8175;49.326;12.690;2024-01-15T02:06:05;-4.60;99.90
16140;DHT22;8175;49.326;12.690;2024-01-15T02:08:31;-4.60;99.90
16140;DHT22;8175;49.326;12.690;2024-01-15T02:10:56;-4.60;99.90
16140;DHT22;8175;49.326;12.690;2024-01-15T02:13:22;-4.60;99.90
16140;DHT22;8175;49.326;12.690;2024-01-15T02:15:48;-4.60;99.90
16140;DHT22;8175;49.326;12.690;2024-01-15T02:18:13;-4.70;99.90
16140;DHT22;8175;49.326;12.690;2024-01-15T02:20:39;-4.70;99.90
16140;DHT22;8175;49.326;12.690;2024-01-15T02:25:41;-4.70;99.90
16140;DHT22;8175;49.326;12.690;2024-01-15T02:28:10;-4.70;99.90
16140;DHT22;8175;49.326;12.690;2024-01-15T02:30:37;-4.70;99.90
16140;DHT22;8175;49.326;12.690;2024-01-15T02:33:05;-4.60;99.90
16140;DHT22;8175;49.326;12.690;2024-01-15T02:35:30;-4.70;99.90
16140;DHT22;8175;49.326;12.690;2024-01-15T02:37:56;-4.70;99.90
16140;DHT22;8175;49.326;12.690;2024-01-15T02:40:22;-4.70;99.90
16140;DHT22;8175;49.326;12.690;2024-01-15T02:42:47;-4.60;99.90
16140;DHT22;8175;49.326;12.690;2024-01-15T02:45:13;-4.70;99.90
16140;DHT22;8175;49.326;12.690;2024-01-15T02:47:38;-4.70;99.90
16140;DHT22;8175;49.326;12.690;2024-01-15T02:50:04;-4.60;99.90
16140;DHT22;8175;49.326;12.690;2024-01-15T02:52:30;-4.60;99.90
16140;DHT22;8175;49.326;12.690;2024-01-15T02:54:56;-4.60;99.90
16140;DHT22;8175;49.326;12.690;2024-01-15T02:57:21;-4.60;99.90
16140;DHT22;8175;49.326;12.690;2024-01-15T02:59:47;-4.60;99.90
16140;DHT22;8175;49.326;12.690;2024-01-15T03:02:13;-4.60;99.90
16140;DHT22;8175;49.326;12.690;2024-01-15T03:04:45;-4.70;99.90
16140;DHT22;8175;49.326;12.690;2024-01-15T03:07:11;-4.60;99.90
16140;DHT22;8175;49.326;12.690;2024-01-15T03:09:37;-4.60;99.90
16140;DHT22;8175;49.326;12.690;2024-01-15T03:12:03;-4.60;99.90
16140;DHT22;8175;49.326;12.690;2024-01-15T03:14:29;-4.60;99.90
16140;DHT22;8175;49.326;12.690;2024-01-15T03:16:55;-4.60;99.90
16140;DHT22;8175;49.326;12.690;2024-01-15T03:19:21;-4.50;99.90
16140;DHT22;8175;49.326;12.690;2024-01-15T03:21:46;-4.60;99.90
16140;DHT22;8175;49.326;12.690;2024-01-15T03:24:12;-4.60;99.90
16140;DHT22;8175;49.326;12.690;2024-01-15T03:26:38;-4.50;99.90
16140;DHT22;8175;49.326;12.690;2024-01-15T03:29:04;-4.50;99.90
16140;DHT22;8175;49.326;12.690;2024-01-15T03:31:29;-4.50;99.90
16140;DHT22;8175;49.326;12.690;2024-01-15T03:33:55;-4.50;99.90
16140;DHT22;8175;49.326;12.690;2024-01-15T03:36:21;-4.50;99.90
16140;DHT22;8175;49.326;12.690;2024-01-15T03:38:47;-4.50;99.90
16140;DHT22;8175;49.326;12.690;2024-01-15T03:41:12;-4.50;99.90
16140;DHT22;8175;49.326;12.690;2024-01-15T03:43:38;-4.50;99.90
16140;DHT22;8175;49.326;12.690;2024-01-15T03:46:04;-4.50;99.90
16140;DHT22;8175;49.326;12.690;2024-01-15T03:48:30;-4.50;99.90
16140;DHT22;8175;49.326;12.690;2024-01-15T03:50:56;-4.50;99.90
16140;DHT22;8175;49.326;12.690;2024-01-15T03:53:21;-4.50;99.90
16140;DHT22;8175;49.326;12.690;2024-01-15T03:55:47;-4.50;99.90
16140;DHT22;8175;49.326;12.690;2024-01-15T03:58:13;-4.50;99.90
16140;DHT22;8175;49.326;12.690;2024-01-15T04:00:40;-4.50;99.90
16140;DHT22;8175;49.326;12.690;2024-01-15T04:03:06;-4.50;99.90
16140;DHT22;8175;49.326;12.690;2024-01-15T04:05:32;-4.50;99.90
16140;DHT22;8175;49.326;12.690;2024-01-15T04:07:57;-4.40;99.90
16140;DHT22;8175;49.326;12.690;2024-01-15T04:10:23;-4.40;99.90
16140;DHT22;8175;49.326;12.690;2024-01-15T04:12:49;-4.40;99.90
16140;DHT22;8175;49.326;12.690;2024-01-15T04:15:15;-4.50;99.90
16140;DHT22;8175;49.326;12.690;2024-01-15T04:17:41;-4.50;99.90
16140;DHT22;8175;49.326;12.690;2024-01-15T04:20:07;-4.50;99.90
16140;DHT22;8175;49.326;12.690;2024-01-15T04:22:36;-4.50;99.90
16140;DHT22;8175;49.326;12.690;2024-01-15T04:25:02;-4.40;99.90
16140;DHT22;8175;49.326;12.690;2024-01-15T04:27:28;-4.40;99.90
16140;DHT22;8175;49.326;12.690;2024-01-15T04:29:54;-4.40;99.90
16140;DHT22;8175;49.326;12.690;2024-01-15T04:32:20;-4.40;99.90
16140;DHT22;8175;49.326;12.690;2024-01-15T04:34:45;-4.30;99.90
16140;DHT22;8175;49.326;12.690;2024-01-15T04:37:11;-4.40;99.90
16140;DHT22;8175;49.326;12.690;2024-01-15T04:39:37;-4.30;99.90
16140;DHT22;8175;49.326;12.690;2024-01-15T04:42:03;-4.30;99.90
16140;DHT22;8175;49.326;12.690;2024-01-15T04:44:29;-4.20;99.90
16140;DHT22;8175;49.326;12.690;2024-01-15T04:46:54;-4.20;99.90
16140;DHT22;8175;49.326;12.690;2024-01-15T04:49:20;-4.10;99.90
16140;DHT22;8175;49.326;12.690;2024-01-15T04:51:46;-4.20;99.90
16140;DHT22;8175;49.326;12.690;2024-01-15T04:54:11;-4.20;99.90
16140;DHT22;8175;49.326;12.690;2024-01-15T04:56:37;-4.10;99.90
16140;DHT22;8175;49.326;12.690;2024-01-15T04:59:03;-4.10;99.90
16140;DHT22;8175;49.326;12.690;2024-01-15T05:01:32;-4.10;99.90
16140;DHT22;8175;49.326;12.690;2024-01-15T05:03:58;-4.10;99.90
16140;DHT22;8175;49.326;12.690;2024-01-15T05:06:24;-4.00;99.90
16140;DHT22;8175;49.326;12.690;2024-01-15T05:08:50;-4.00;99.90
16140;DHT22;8175;49.326;12.690;2024-01-15T05:11:16;-4.00;99.90
16140;DHT22;8175;49.326;12.690;2024-01-15T05:13:41;-4.00;99.90
16140;DHT22;8175;49.326;12.690;2024-01-15T05:16:07;-4.00;99.90
16140;DHT22;8175;49.326;12.690;2024-01-15T05:18:33;-4.00;99.90
16140;DHT22;8175;49.326;12.690;2024-01-15T05:20:58;-3.90;99.90
16140;DHT22;8175;49.326;12.690;2024-01-15T05:23:24;-3.90;99.90
16140;DHT22;8175;49.326;12.690;2024-01-15T05:25:50;-3.90;99.90
16140;DHT22;8175;49.326;12.690;2024-01-15T05:28:16;-3.90;99.90
16140;DHT22;8175;49.326;12.690;2024-01-15T05:30:41;-3.90;99.90
16140;DHT22;8175;49.326;12.690;2024-01-15T05:33:07;-3.80;99.90
16140;DHT22;8175;49.326;12.690;2024-01-15T05:35:34;-3.70;99.90
16140;DHT22;8175;49.326;12.690;2024-01-15T05:37:59;-3.70;99.90
16140;DHT22;8175;49.326;12.690;2024-01-15T05:40:25;-3.80;99.90
16140;DHT22;8175;49.326;12.690;2024-01-15T05:42:51;-3.70;99.90
16140;DHT22;8175;49.326;12.690;2024-01-15T05:45:17;-3.70;99.90
16140;DHT22;8175;49.326;12.690;2024-01-15T05:47:42;-3.70;99.90
16140;DHT22;8175;49.326;12.690;2024-01-15T05:50:09;-3.70;99.90
16140;DHT22;8175;49.326;12.690;2024-01-15T05:52:35;-3.70;99.90
16140;DHT22;8175;49.326;12.690;2024-01-15T05:55:01;-3.70;99.90
16140;DHT22;8175;49.326;12.690;2024-01-15T05:57:26;-3.70;99.90
16140;DHT22;8175;49.326;12.690;2024-01-15T05:59:52;-3.70;99.90
16140;DHT22;8175;49.326;12.690;2024-01-15T06:02:18;-3.60;99.90
16140;DHT22;8175;49.326;12.690;2024-01-15T06:04:43;-3.60;99.90
16140;DHT22;8175;49.326;12.690;2024-01-15T06:07:09;-3.70;99.90
16140;DHT22;8175;49.326;12.690;2024-01-15T06:09:34;-3.60;99.90
16140;DHT22;8175;49.326;12.690;2024-01-15T06:12:00;-3.60;99.90
16140;DHT22;8175;49.326;12.690;2024-01-15T06:14:26;-3.60;99.90
16140;DHT22;8175;49.326;12.690;2024-01-15T06:16:52;-3.50;99.90
16140;DHT22;8175;49.326;12.690;2024-01-15T06:19:18;-3.60;99.90
16140;DHT22;8175;49.326;12.690;2024-01-15T06:21:43;-3.60;99.90
16140;DHT22;8175;49.326;12.690;2024-01-15T06:24:09;-3.60;99.90
16140;DHT22;8175;49.326;12.690;2024-01-15T06:26:35;-3.60;99.90
16140;DHT22;8175;49.326;12.690;2024-01-15T06:29:01;-3.60;99.90
16140;DHT22;8175;49.326;12.690;2024-01-15T06:31:28;-3.50;99.90
16140;DHT22;8175;49.326;12.690;2024-01-15T06:33:55;-3.40;99.90
16140;DHT22;8175;49.326;12.690;2024-01-15T06:36:20;-3.50;99.90
16140;DHT22;8175;49.326;12.690;2024-01-15T06:38:46;-3.50;99.90
16140;DHT22;8175;49.326;12.690;2024-01-15T06:41:12;-3.50;99.90
16140;DHT22;8175;49.326;12.690;2024-01-15T06:43:38;-3.50;99.90
16140;DHT22;8175;49.326;12.690;2024-01-15T06:46:03;-3.50;99.90
16140;DHT22;8175;49.326;12.690;2024-01-15T06:48:29;-3.50;99.90
16140;DHT22;8175;49.326;12.690;2024-01-15T06:50:55;-3.50;99.90
16140;DHT22;8175;49.326;12.690;2024-01-15T06:53:21;-3.50;99.90
16140;DHT22;8175;49.326;12.690;2024-01-15T06:55:47;-3.50;99.90
16140;DHT22;8175;49.326;12.690;2024-01-15T06:58:14;-3.40;99.90
16140;DHT22;8175;49.326;12.690;2024-01-15T07:00:40;-3.40;99.90
16140;DHT22;8175;49.326;12.690;2024-01-15T07:03:06;-3.40;99.90
16140;DHT22;8175;49.326;12.690;2024-01-15T07:05:31;-3.30;99.90
16140;DHT22;8175;49.326;12.690;2024-01-15T07:07:57;-3.30;99.90
16140;DHT22;8175;49.326;12.690;2024-01-15T07:10:23;-3.20;99.90
16140;DHT22;8175;49.326;12.690;2024-01-15T07:12:48;-3.20;99.90
16140;DHT22;8175;49.326;12.690;2024-01-15T07:15:15;-3.20;99.90
16140;DHT22;8175;49.326;12.690;2024-01-15T07:17:41;-3.20;99.90
16140;DHT22;8175;49.326;12.690;2024-01-15T07:20:08;-3.10;99.90
16140;DHT22;8175;49.326;12.690;2024-01-15T07:22:35;-3.10;99.90
16140;DHT22;8175;49.326;12.690;2024-01-15T07:25:01;-3.10;99.90
16140;DHT22;8175;49.326;12.690;2024-01-15T07:27:27;-3.00;99.90
16140;DHT22;8175;49.326;12.690;2024-01-15T07:29:52;-3.10;99.90
16140;DHT22;8175;49.326;12.690;2024-01-15T07:32:18;-3.00;99.90
16140;DHT22;8175;49.326;12.690;2024-01-15T07:34:44;-2.90;99.90
16140;DHT22;8175;49.326;12.690;2024-01-15T07:37:09;-3.00;99.90
16140;DHT22;8175;49.326;12.690;2024-01-15T07:39:35;-2.90;99.90
16140;DHT22;8175;49.326;12.690;2024-01-15T07:42:01;-2.90;99.90
16140;DHT22;8175;49.326;12.690;2024-01-15T07:44:27;-2.90;99.90
16140;DHT22;8175;49.326;12.690;2024-01-15T07:46:52;-2.80;99.90
16140;DHT22;8175;49.326;12.690;2024-01-15T07:49:18;-2.80;99.90
16140;DHT22;8175;49.326;12.690;2024-01-15T07:51:44;-2.70;99.90
16140;DHT22;8175;49.326;12.690;2024-01-15T07:54:10;-2.70;99.90
16140;DHT22;8175;49.326;12.690;2024-01-15T07:57:15;-2.80;99.90
16140;DHT22;8175;49.326;12.690;2024-01-15T07:59:41;-2.70;99.90
16140;DHT22;8175;49.326;12.690;2024-01-15T08:02:07;-2.70;99.90
16140;DHT22;8175;49.326;12.690;2024-01-15T08:04:32;-2.70;99.90
16140;DHT22;8175;49.326;12.690;2024-01-15T08:06:58;-2.70;99.90
16140;DHT22;8175;49.326;12.690;2024-01-15T08:09:24;-2.60;99.90
16140;DHT22;8175;49.326;12.690;2024-01-15T08:11:49;-2.50;99.90
16140;DHT22;8175;49.326;12.690;2024-01-15T08:14:15;-2.50;99.90
16140;DHT22;8175;49.326;12.690;2024-01-15T08:16:41;-2.50;99.90
16140;DHT22;8175;49.326;12.690;2024-01-15T08:19:07;-2.50;99.90
16140;DHT22;8175;49.326;12.690;2024-01-15T08:21:33;-2.50;99.90
16140;DHT22;8175;49.326;12.690;2024-01-15T08:24:00;-2.50;99.90
16140;DHT22;8175;49.326;12.690;2024-01-15T08:26:26;-2.50;99.90
16140;DHT22;8175;49.326;12.690;2024-01-15T08:28:51;-2.50;99.90
16140;DHT22;8175;49.326;12.690;2024-01-15T08:31:17;-2.50;99.90
16140;DHT22;8175;49.326;12.690;2024-01-15T08:33:43;-2.50;99.90
16140;DHT22;8175;49.326;12.690;2024-01-15T08:36:11;-2.50;99.90
16140;DHT22;8175;49.326;12.690;2024-01-15T08:38:37;-2.50;99.90
16140;DHT22;8175;49.326;12.690;2024-01-15T08:41:03;-2.40;99.90
16140;DHT22;8175;49.326;12.690;2024-01-15T08:43:29;-2.40;99.90
16140;DHT22;8175;49.326;12.690;2024-01-15T08:45:56;-2.40;99.90
16140;DHT22;8175;49.326;12.690;2024-01-15T08:48:22;-2.30;99.90
16140;DHT22;8175;49.326;12.690;2024-01-15T08:50:48;-2.30;99.90
16140;DHT22;8175;49.326;12.690;2024-01-15T08:53:14;-2.30;99.90
16140;DHT22;8175;49.326;12.690;2024-01-15T08:55:40;-2.20;99.90
16140;DHT22;8175;49.326;12.690;2024-01-15T08:58:07;-2.20;99.90
16140;DHT22;8175;49.326;12.690;2024-01-15T09:00:34;-2.10;99.90
16140;DHT22;8175;49.326;12.690;2024-01-15T09:02:59;-2.10;99.90
16140;DHT22;8175;49.326;12.690;2024-01-15T09:05:25;-2.10;99.90
16140;DHT22;8175;49.326;12.690;2024-01-15T09:07:51;-2.10;99.90
16140;DHT22;8175;49.326;12.690;2024-01-15T09:10:19;-2.00;99.90
16140;DHT22;8175;49.326;12.690;2024-01-15T09:12:45;-2.00;99.90
16140;DHT22;8175;49.326;12.690;2024-01-15T09:15:11;-1.90;99.90
16140;DHT22;8175;49.326;12.690;2024-01-15T09:17:36;-1.80;99.90
16140;DHT22;8175;49.326;12.690;2024-01-15T09:20:02;-1.70;99.90
16140;DHT22;8175;49.326;12.690;2024-01-15T09:22:30;-1.60;99.90
16140;DHT22;8175;49.326;12.690;2024-01-15T09:24:55;-1.60;99.90
16140;DHT22;8175;49.326;12.690;2024-01-15T09:27:21;-1.80;99.90
16140;DHT22;8175;49.326;12.690;2024-01-15T09:29:47;-1.80;99.90
16140;DHT22;8175;49.326;12.690;2024-01-15T09:32:12;-1.80;99.90
16140;DHT22;8175;49.326;12.690;2024-01-15T09:34:38;-1.80;99.90
16140;DHT22;8175;49.326;12.690;2024-01-15T09:37:04;-1.80;99.90
16140;DHT22;8175;49.326;12.690;2024-01-15T09:39:30;-1.80;99.90
16140;DHT22;8175;49.326;12.690;2024-01-15T09:41:58;-1.70;99.90
16140;DHT22;8175;49.326;12.690;2024-01-15T09:44:24;-1.70;99.90
16140;DHT22;8175;49.326;12.690;2024-01-15T09:46:49;-1.70;99.90
16140;DHT22;8175;49.326;12.690;2024-01-15T09:49:18;-1.70;99.90
16140;DHT22;8175;49.326;12.690;2024-01-15T09:51:44;-1.70;99.90
16140;DHT22;8175;49.326;12.690;2024-01-15T09:54:10;-1.80;99.90
16140;DHT22;8175;49.326;12.690;2024-01-15T09:56:39;-1.90;99.90
16140;DHT22;8175;49.326;12.690;2024-01-15T09:59:05;-1.90;99.90
16140;DHT22;8175;49.326;12.690;2024-01-15T10:01:36;-1.80;99.90
16140;DHT22;8175;49.326;12.690;2024-01-15T10:04:02;-1.80;99.90
16140;DHT22;8175;49.326;12.690;2024-01-15T10:06:27;-1.70;99.90
16140;DHT22;8175;49.326;12.690;2024-01-15T10:08:54;-1.60;99.90
16140;DHT22;8175;49.326;12.690;2024-01-15T10:11:21;-1.60;99.90
16140;DHT22;8175;49.326;12.690;2024-01-15T10:13:47;-1.60;99.90
16140;DHT22;8175;49.326;12.690;2024-01-15T10:16:17;-1.50;99.90
16140;DHT22;8175;49.326;12.690;2024-01-15T10:18:43;-1.50;99.90
16140;DHT22;8175;49.326;12.690;2024-01-15T10:21:08;-1.60;99.90
16140;DHT22;8175;49.326;12.690;2024-01-15T10:23:34;-1.50;99.90
16140;DHT22;8175;49.326;12.690;2024-01-15T10:26:01;-1.50;99.90
16140;DHT22;8175;49.326;12.690;2024-01-15T10:28:28;-1.50;99.90
16140;DHT22;8175;49.326;12.690;2024-01-15T10:30:57;-1.50;99.90
16140;DHT22;8175;49.326;12.690;2024-01-15T10:33:24;-1.50;99.90
16140;DHT22;8175;49.326;12.690;2024-01-15T10:35:53;-1.50;99.90
16140;DHT22;8175;49.326;12.690;2024-01-15T10:38:21;-1.60;99.90
16140;DHT22;8175;49.326;12.690;2024-01-15T10:40:51;-1.60;99.90
16140;DHT22;8175;49.326;12.690;2024-01-15T10:43:17;-1.60;99.90
16140;DHT22;8175;49.326;12.690;2024-01-15T10:45:47;-1.60;99.90
16140;DHT22;8175;49.326;12.690;2024-01-15T10:48:13;-1.60;99.90
16140;DHT22;8175;49.326;12.690;2024-01-15T10:50:39;-1.50;99.90
16140;DHT22;8175;49.326;12.690;2024-01-15T10:53:06;-1.40;99.90
16140;DHT22;8175;49.326;12.690;2024-01-15T10:55:33;-1.40;99.90
16140;DHT22;8175;49.326;12.690;2024-01-15T10:58:01;-1.50;99.90
16140;DHT22;8175;49.326;12.690;2024-01-15T11:00:27;-1.50;99.90
16140;DHT22;8175;49.326;12.690;2024-01-15T11:02:53;-1.50;99.90
16140;DHT22;8175;49.326;12.690;2024-01-15T11:05:21;-1.40;99.90
16140;DHT22;8175;49.326;12.690;2024-01-15T11:07:50;-1.40;99.90
16140;DHT22;8175;49.326;12.690;2024-01-15T11:10:54;-1.30;99.90
16140;DHT22;8175;49.326;12.690;2024-01-15T11:15:56;-1.10;99.90
16140;DHT22;8175;49.326;12.690;2024-01-15T11:18:22;-1.10;99.90
16140;DHT22;8175;49.326;12.690;2024-01-15T11:23:45;-1.10;99.90
16140;DHT22;8175;49.326;12.690;2024-01-15T11:32:09;-1.30;99.90
16140;DHT22;8175;49.326;12.690;2024-01-15T11:34:56;-1.30;99.90
16140;DHT22;8175;49.326;12.690;2024-01-15T11:37:29;-1.40;99.90
16140;DHT22;8175;49.326;12.690;2024-01-15T11:40:18;-1.30;99.90
16140;DHT22;8175;49.326;12.690;2024-01-15T11:42:45;-1.30;99.90
16140;DHT22;8175;49.326;12.690;2024-01-15T11:45:11;-1.30;99.90
16140;DHT22;8175;49.326;12.690;2024-01-15T11:50:23;-1.30;99.90
16140;DHT22;8175;49.326;12.690;2024-01-15T11:53:02;-1.30;99.90
16140;DHT22;8175;49.326;12.690;2024-01-15T11:55:35;-1.20;99.90
16140;DHT22;8175;49.326;12.690;2024-01-15T11:58:10;-1.30;99.90
16140;DHT22;8175;49.326;12.690;2024-01-15T12:00:40;-1.30;99.90
16140;DHT22;8175;49.326;12.690;2024-01-15T12:03:07;-1.30;99.90
16140;DHT22;8175;49.326;12.690;2024-01-15T12:05:37;-1.40;99.90
16140;DHT22;8175;49.326;12.690;2024-01-15T12:08:02;-1.40;99.90
16140;DHT22;8175;49.326;12.690;2024-01-15T12:10:28;-1.30;99.90
16140;DHT22;8175;49.326;12.690;2024-01-15T12:12:58;-1.30;99.90
16140;DHT22;8175;49.326;12.690;2024-01-15T12:15:26;-1.20;99.90
16140;DHT22;8175;49.326;12.690;2024-01-15T12:17:54;-1.20;99.90
16140;DHT22;8175;49.326;12.690;2024-01-15T12:20:19;-1.10;99.90
16140;DHT22;8175;49.326;12.690;2024-01-15T12:22:46;-1.10;99.90
16140;DHT22;8175;49.326;12.690;2024-01-15T12:25:11;-1.10;99.90
16140;DHT22;8175;49.326;12.690;2024-01-15T12:27:37;-1.10;99.90
16140;DHT22;8175;49.326;12.690;2024-01-15T12:30:03;-1.20;99.90
16140;DHT22;8175;49.326;12.690;2024-01-15T12:32:29;-1.10;99.90
16140;DHT22;8175;49.326;12.690;2024-01-15T12:34:55;-1.20;99.90
16140;DHT22;8175;49.326;12.690;2024-01-15T12:37:21;-1.30;99.90
16140;DHT22;8175;49.326;12.690;2024-01-15T12:39:47;-1.30;99.90
16140;DHT22;8175;49.326;12.690;2024-01-15T12:42:16;-1.40;99.90
16140;DHT22;8175;49.326;12.690;2024-01-15T12:44:43;-1.40;99.90
16140;DHT22;8175;49.326;12.690;2024-01-15T12:47:08;-1.30;99.90
16140;DHT22;8175;49.326;12.690;2024-01-15T12:49:39;-1.10;99.90
16140;DHT22;8175;49.326;12.690;2024-01-15T12:52:09;-1.10;99.90
16140;DHT22;8175;49.326;12.690;2024-01-15T12:54:35;-1.00;99.90
16140;DHT22;8175;49.326;12.690;2024-01-15T12:57:00;-0.90;99.90
16140;DHT22;8175;49.326;12.690;2024-01-15T12:59:26;-0.70;99.90
16140;DHT22;8175;49.326;12.690;2024-01-15T13:01:52;-0.80;99.90
16140;DHT22;8175;49.326;12.690;2024-01-15T13:04:22;-0.90;99.90
16140;DHT22;8175;49.326;12.690;2024-01-15T13:06:49;-0.90;99.90
16140;DHT22;8175;49.326;12.690;2024-01-15T13:09:15;-0.90;99.90
16140;DHT22;8175;49.326;12.690;2024-01-15T13:11:41;-0.80;99.90
16140;DHT22;8175;49.326;12.690;2024-01-15T13:14:06;-0.80;99.90
16140;DHT22;8175;49.326;12.690;2024-01-15T13:16:32;-0.70;99.90
16140;DHT22;8175;49.326;12.690;2024-01-15T13:18:58;-0.70;99.90
16140;DHT22;8175;49.326;12.690;2024-01-15T13:21:24;-0.70;99.90
16140;DHT22;8175;49.326;12.690;2024-01-15T13:23:50;-0.70;99.90
16140;DHT22;8175;49.326;12.690;2024-01-15T13:26:15;-0.60;99.90
16140;DHT22;8175;49.326;12.690;2024-01-15T13:28:43;-0.30;99.90
16140;DHT22;8175;49.326;12.690;2024-01-15T13:31:09;-0.20;99.90
16140;DHT22;8175;49.326;12.690;2024-01-15T13:33:35;-0.20;99.90
16140;DHT22;8175;49.326;12.690;2024-01-15T13:36:00;-0.30;99.90
16140;DHT22;8175;49.326;12.690;2024-01-15T13:38:26;-0.40;99.90
16140;DHT22;8175;49.326;12.690;2024-01-15T13:40:53;-0.60;99.90
16140;DHT22;8175;49.326;12.690;2024-01-15T13:43:20;-0.80;99.90
16140;DHT22;8175;49.326;12.690;2024-01-15T13:45:46;-0.80;99.90
16140;DHT22;8175;49.326;12.690;2024-01-15T13:48:12;-0.90;99.90
16140;DHT22;8175;49.326;12.690;2024-01-15T13:50:37;-0.90;99.90
16140;DHT22;8175;49.326;12.690;2024-01-15T13:53:03;-0.90;99.90
16140;DHT22;8175;49.326;12.690;2024-01-15T13:55:29;-0.90;99.90
16140;DHT22;8175;49.326;12.690;2024-01-15T13:57:55;-1.00;99.90
16140;DHT22;8175;49.326;12.690;2024-01-15T14:00:21;-1.00;99.90
16140;DHT22;8175;49.326;12.690;2024-01-15T14:02:47;-1.10;99.90
16140;DHT22;8175;49.326;12.690;2024-01-15T14:05:13;-1.10;99.90
16140;DHT22;8175;49.326;12.690;2024-01-15T14:07:39;-1.10;99.90
16140;DHT22;8175;49.326;12.690;2024-01-15T14:10:05;-1.10;99.90
16140;DHT22;8175;49.326;12.690;2024-01-15T14:12:31;-1.20;99.90
16140;DHT22;8175;49.326;12.690;2024-01-15T14:14:57;-1.20;99.90
16140;DHT22;8175;49.326;12.690;2024-01-15T14:17:22;-1.20;99.90
16140;DHT22;8175;49.326;12.690;2024-01-15T14:19:48;-1.20;99.90
16140;DHT22;8175;49.326;12.690;2024-01-15T14:22:14;-1.20;99.90
16140;DHT22;8175;49.326;12.690;2024-01-15T14:24:39;-1.30;99.90
16140;DHT22;8175;49.326;12.690;2024-01-15T14:27:05;-1.30;99.90
16140;DHT22;8175;49.326;12.690;2024-01-15T14:29:32;-1.30;99.90
16140;DHT22;8175;49.326;12.690;2024-01-15T14:31:58;-1.30;99.90
16140;DHT22;8175;49.326;12.690;2024-01-15T14:34:25;-1.30;99.90
16140;DHT22;8175;49.326;12.690;2024-01-15T14:36:52;-1.30;99.90
16140;DHT22;8175;49.326;12.690;2024-01-15T14:39:23;-1.30;99.90
16140;DHT22;8175;49.326;12.690;2024-01-15T14:41:50;-1.30;99.90
16140;DHT22;8175;49.326;12.690;2024-01-15T14:44:15;-1.30;99.90
16140;DHT22;8175;49.326;12.690;2024-01-15T14:46:41;-1.40;99.90
16140;DHT22;8175;49.326;12.690;2024-01-15T14:49:06;-1.40;99.90
16140;DHT22;8175;49.326;12.690;2024-01-15T14:51:34;-1.40;99.90
16140;DHT22;8175;49.326;12.690;2024-01-15T14:54:00;-1.50;99.90
16140;DHT22;8175;49.326;12.690;2024-01-15T14:56:25;-1.50;99.90
16140;DHT22;8175;49.326;12.690;2024-01-15T14:58:51;-1.50;99.90
16140;DHT22;8175;49.326;12.690;2024-01-15T15:01:17;-1.50;99.90
16140;DHT22;8175;49.326;12.690;2024-01-15T15:03:42;-1.40;99.90
16140;DHT22;8175;49.326;12.690;2024-01-15T15:06:09;-1.40;99.90
16140;DHT22;8175;49.326;12.690;2024-01-15T15:08:36;-1.50;99.90
16140;DHT22;8175;49.326;12.690;2024-01-15T15:11:03;-1.50;99.90
16140;DHT22;8175;49.326;12.690;2024-01-15T15:13:29;-1.50;99.90
16140;DHT22;8175;49.326;12.690;2024-01-15T15:15:54;-1.50;99.90
16140;DHT22;8175;49.326;12.690;2024-01-15T15:18:21;-1.50;99.90
16140;DHT22;8175;49.326;12.690;2024-01-15T15:20:49;-1.50;99.90
16140;DHT22;8175;49.326;12.690;2024-01-15T15:23:16;-1.50;99.90
16140;DHT22;8175;49.326;12.690;2024-01-15T15:25:43;-1.50;99.90
16140;DHT22;8175;49.326;12.690;2024-01-15T15:28:08;-1.50;99.90
16140;DHT22;8175;49.326;12.690;2024-01-15T15:30:35;-1.50;99.90
16140;DHT22;8175;49.326;12.690;2024-01-15T15:33:00;-1.50;99.90
16140;DHT22;8175;49.326;12.690;2024-01-15T15:35:27;-1.60;99.90
16140;DHT22;8175;49.326;12.690;2024-01-15T15:37:53;-1.50;99.90
16140;DHT22;8175;49.326;12.690;2024-01-15T15:40:18;-1.50;99.90
16140;DHT22;8175;49.326;12.690;2024-01-15T15:42:44;-1.50;99.90